createdAt,value
2022-11-07T00:00:53.265Z,11.07
2022-11-07T00:03:25.968Z,11.04
2022-11-07T00:05:56.295Z,11.07
2022-11-07T00:08:32.026Z,11.05
2022-11-07T00:11:02.417Z,11.00
2022-11-07T00:13:32.974Z,11.02
2022-11-07T00:16:03.669Z,11.00
2022-11-07T00:18:37.916Z,10.98
2022-11-07T00:21:10.398Z,10.97
2022-11-07T00:23:44.051Z,10.99
2022-11-07T00:26:16.489Z,11.03
2022-11-07T00:28:47.647Z,11.06
2022-11-07T00:31:18.795Z,11.16
2022-11-07T00:33:51.646Z,11.17
2022-11-07T00:36:25.053Z,11.08
2022-11-07T00:38:55.658Z,11.06
2022-11-07T00:41:26.593Z,11.09
2022-11-07T00:43:57.703Z,11.07
2022-11-07T00:46:27.574Z,11.08
2022-11-07T00:49:00.550Z,11.02
2022-11-07T00:51:32.202Z,11.02
2022-11-07T00:54:04.251Z,10.89
2022-11-07T00:56:34.679Z,10.84
2022-11-07T00:59:05.866Z,10.81
2022-11-07T01:01:38.112Z,10.80
2022-11-07T01:04:27.648Z,10.74
2022-11-07T01:06:57.817Z,10.68
2022-11-07T01:09:28.089Z,10.70
2022-11-07T01:11:58.171Z,10.54
2022-11-07T01:14:28.813Z,10.49
2022-11-07T01:16:58.954Z,10.45
2022-11-07T01:19:31.785Z,10.47
2022-11-07T01:22:01.969Z,10.42
2022-11-07T01:24:32.116Z,10.41
2022-11-07T01:27:02.450Z,10.39
2022-11-07T01:29:32.581Z,10.45
2022-11-07T01:32:02.803Z,10.39
2022-11-07T01:34:35.638Z,10.32
2022-11-07T01:37:05.728Z,10.30
2022-11-07T01:39:35.871Z,10.37
2022-11-07T01:42:06.424Z,10.37
2022-11-07T01:44:57.830Z,10.31
2022-11-07T01:47:34.507Z,10.22
2022-11-07T01:50:10.815Z,10.26
2022-11-07T01:52:44.924Z,10.19
2022-11-07T01:55:20.177Z,10.15
2022-11-07T01:57:55.975Z,10.08
2022-11-07T02:00:28.088Z,10.06
2022-11-07T02:03:03.921Z,10.04
2022-11-07T02:05:41.123Z,9.95
2022-11-07T02:08:12.587Z,9.91
2022-11-07T02:10:45.027Z,9.90
2022-11-07T02:13:22.591Z,9.89
2022-11-07T02:15:52.815Z,9.89
2022-11-07T02:18:24.113Z,9.86
2022-11-07T02:21:00.661Z,9.90
2022-11-07T02:23:39.089Z,9.96
2022-11-07T02:26:12.043Z,9.96
2022-11-07T02:28:44.224Z,9.96
2022-11-07T02:31:14.447Z,9.97
2022-11-07T02:33:44.724Z,9.97
2022-11-07T02:36:18.972Z,9.99
2022-11-07T02:38:51.988Z,9.90
2022-11-07T02:41:28.756Z,9.91
2022-11-07T02:44:03.788Z,9.83
2022-11-07T02:46:35.182Z,9.82
2022-11-07T02:49:05.504Z,9.79
2022-11-07T02:51:35.928Z,9.70
2022-11-07T02:54:06.337Z,9.71
2022-11-07T02:56:39.098Z,9.61
2022-11-07T02:59:09.109Z,9.51
2022-11-07T03:01:39.305Z,9.51
2022-11-07T03:04:09.468Z,9.47
2022-11-07T03:06:39.540Z,9.48
2022-11-07T03:09:09.680Z,9.45
2022-11-07T03:11:42.469Z,9.49
2022-11-07T03:14:12.548Z,9.44
2022-11-07T03:16:42.644Z,9.47
2022-11-07T03:19:12.688Z,9.50
2022-11-07T03:21:42.798Z,9.50
2022-11-07T03:24:12.909Z,9.51
2022-11-07T03:26:45.780Z,9.60
2022-11-07T03:29:16.044Z,9.69
2022-11-07T03:31:46.061Z,9.77
2022-11-07T03:34:16.321Z,9.86
2022-11-07T03:36:46.379Z,9.93
2022-11-07T03:39:19.470Z,9.88
2022-11-07T03:41:54.449Z,9.93
2022-11-07T03:44:24.771Z,9.92
2022-11-07T03:46:54.989Z,10.01
2022-11-07T03:49:25.050Z,10.06
2022-11-07T03:51:55.051Z,10.10
2022-11-07T03:54:25.118Z,10.07
2022-11-07T03:56:58.020Z,10.06
2022-11-07T03:59:28.775Z,9.99
2022-11-07T04:01:59.236Z,9.90
2022-11-07T04:04:29.577Z,9.81
2022-11-07T04:06:59.709Z,9.77
2022-11-07T04:09:29.804Z,9.75
2022-11-07T04:12:14.955Z,9.76
2022-11-07T04:14:57.387Z,9.78
2022-11-07T04:17:28.362Z,9.77
2022-11-07T04:19:59.935Z,9.77
2022-11-07T04:22:30.730Z,9.80
2022-11-07T04:25:01.063Z,9.73
2022-11-07T04:27:43.090Z,9.76
2022-11-07T04:30:26.742Z,9.82
2022-11-07T04:32:59.415Z,9.76
2022-11-07T04:35:32.178Z,9.77
2022-11-07T04:38:03.122Z,9.78
2022-11-07T04:40:33.879Z,9.77
2022-11-07T04:43:09.451Z,9.72
2022-11-07T04:45:40.387Z,9.69
2022-11-07T04:48:12.918Z,9.67
2022-11-07T04:50:43.663Z,9.64
2022-11-07T04:53:16.261Z,9.57
2022-11-07T04:55:47.322Z,9.60
2022-11-07T04:58:20.237Z,9.65
2022-11-07T05:00:50.494Z,9.60
2022-11-07T05:03:20.586Z,9.55
2022-11-07T05:05:50.838Z,9.64
2022-11-07T05:08:20.929Z,9.67
2022-11-07T05:10:51.404Z,9.62
2022-11-07T05:13:27.404Z,9.62
2022-11-07T05:15:57.541Z,9.55
2022-11-07T05:18:27.584Z,9.62
2022-11-07T05:20:58.621Z,9.63
2022-11-07T05:23:27.953Z,9.60
2022-11-07T05:25:58.453Z,9.63
2022-11-07T05:28:39.049Z,9.72
2022-11-07T05:31:10.818Z,9.67
2022-11-07T05:33:40.985Z,9.58
2022-11-07T05:36:16.958Z,9.54
2022-11-07T05:38:49.091Z,9.59
2022-11-07T05:41:20.933Z,9.62
2022-11-07T05:43:53.644Z,9.60
2022-11-07T05:46:23.660Z,9.63
2022-11-07T05:48:59.730Z,9.67
2022-11-07T05:51:31.126Z,9.74
2022-11-07T05:54:01.217Z,9.71
2022-11-07T05:56:31.269Z,9.68
2022-11-07T05:59:03.950Z,9.62
2022-11-07T06:01:34.420Z,9.62
2022-11-07T06:04:06.718Z,9.56
2022-11-07T06:06:36.998Z,9.54
2022-11-07T06:09:07.236Z,9.52
2022-11-07T06:11:37.244Z,9.52
2022-11-07T06:14:09.915Z,9.57
2022-11-07T06:16:40.481Z,9.53
2022-11-07T06:19:10.585Z,9.55
2022-11-07T06:21:41.413Z,9.58
2022-11-07T06:24:15.374Z,9.56
2022-11-07T06:26:45.818Z,9.64
2022-11-07T06:29:18.652Z,9.71
2022-11-07T06:31:48.830Z,9.74
2022-11-07T06:34:18.864Z,9.85
2022-11-07T06:36:58.647Z,9.87
2022-11-07T06:39:31.891Z,9.86
2022-11-07T06:42:02.030Z,9.93
2022-11-07T06:44:34.847Z,10.01
2022-11-07T06:47:04.975Z,10.10
2022-11-07T06:49:35.009Z,10.10
2022-11-07T06:52:05.511Z,10.13
2022-11-07T06:54:35.693Z,10.21
2022-11-07T06:57:05.735Z,10.26
2022-11-07T06:59:38.432Z,10.41
2022-11-07T07:02:08.748Z,10.56
2022-11-07T07:04:39.051Z,10.72
2022-11-07T07:07:09.757Z,10.86
2022-11-07T07:09:40.029Z,11.10
2022-11-07T07:12:13.552Z,11.20
2022-11-07T07:14:46.225Z,11.27
2022-11-07T07:17:16.348Z,11.15
2022-11-07T07:19:46.391Z,11.07
2022-11-07T07:22:16.654Z,11.06
2022-11-07T07:24:48.260Z,10.98
2022-11-07T07:27:20.458Z,11.04
2022-11-07T07:29:53.683Z,11.20
2022-11-07T07:32:25.259Z,11.23
2022-11-07T07:34:55.627Z,11.37
2022-11-07T07:37:25.701Z,11.36
2022-11-07T07:39:55.839Z,11.59
2022-11-07T07:42:26.103Z,11.87
2022-11-07T07:45:00.168Z,12.11
2022-11-07T07:47:30.408Z,12.21
2022-11-07T07:50:00.460Z,12.36
2022-11-07T07:52:30.547Z,12.24
2022-11-07T07:55:00.647Z,12.35
2022-11-07T07:57:30.751Z,12.45
2022-11-07T08:00:03.474Z,12.34
2022-11-07T08:02:43.693Z,12.24
2022-11-07T08:05:14.824Z,12.02
2022-11-07T08:07:49.035Z,11.99
2022-11-07T08:10:40.896Z,12.37
2022-11-07T08:13:10.958Z,13.20
2022-11-07T08:15:43.834Z,13.97
2022-11-07T08:18:13.955Z,13.97
2022-11-07T08:20:45.000Z,14.44
2022-11-07T08:23:16.990Z,14.25
2022-11-07T08:25:53.896Z,13.98
2022-11-07T08:28:27.801Z,14.06
2022-11-07T08:31:03.391Z,14.06
2022-11-07T08:33:33.665Z,14.13
2022-11-07T08:36:06.329Z,14.06
2022-11-07T08:38:39.097Z,13.86
2022-11-07T08:41:09.508Z,13.82
2022-11-07T08:43:39.801Z,13.98
2022-11-07T08:46:12.690Z,15.14
2022-11-07T08:48:42.922Z,15.05
2022-11-07T08:51:13.231Z,14.64
2022-11-07T08:53:43.477Z,14.40
2022-11-07T08:56:14.013Z,14.69
2022-11-07T08:58:44.709Z,15.12
2022-11-07T09:01:17.732Z,15.68
2022-11-07T09:03:54.786Z,15.98
2022-11-07T09:06:27.926Z,16.12
2022-11-07T09:08:58.188Z,15.63
2022-11-07T09:11:28.607Z,15.81
2022-11-07T09:13:59.085Z,15.35
2022-11-07T09:16:32.052Z,15.10
2022-11-07T09:19:02.223Z,16.00
2022-11-07T09:21:32.360Z,15.65
2022-11-07T09:24:02.673Z,15.90
2022-11-07T09:26:32.843Z,15.56
2022-11-07T09:29:02.975Z,15.26
2022-11-07T09:31:36.376Z,15.36
2022-11-07T09:34:07.528Z,15.65
2022-11-07T09:36:37.723Z,15.46
2022-11-07T09:39:08.024Z,15.31
2022-11-07T09:41:53.757Z,15.52
2022-11-07T09:44:43.605Z,15.55
2022-11-07T09:47:23.516Z,15.33
2022-11-07T09:49:56.815Z,15.46
2022-11-07T09:52:41.235Z,15.18
2022-11-07T09:55:20.308Z,14.96
2022-11-07T09:57:52.430Z,14.77
2022-11-07T10:00:25.268Z,14.61
2022-11-07T10:03:01.907Z,14.77
2022-11-07T10:05:43.472Z,14.91
2022-11-07T10:08:22.303Z,14.94
2022-11-07T10:10:59.426Z,15.09
2022-11-07T10:13:55.308Z,14.88
2022-11-07T10:16:39.014Z,14.55
2022-11-07T10:19:31.180Z,14.36
2022-11-07T10:22:20.520Z,14.40
2022-11-07T10:25:08.868Z,14.50
2022-11-07T10:27:41.419Z,14.68
2022-11-07T10:30:20.962Z,15.18
2022-11-07T10:33:01.315Z,15.56
2022-11-07T10:35:37.271Z,16.24
2022-11-07T10:38:22.678Z,16.71
2022-11-07T10:40:54.529Z,17.04
2022-11-07T10:43:35.746Z,17.06
2022-11-07T10:46:07.198Z,17.91
2022-11-07T10:48:38.282Z,17.92
2022-11-07T10:51:11.168Z,18.19
2022-11-07T10:53:47.435Z,18.05
2022-11-07T10:56:22.511Z,18.36
2022-11-07T10:58:52.717Z,18.59
2022-11-07T11:01:27.913Z,17.83
2022-11-07T11:03:58.225Z,17.64
2022-11-07T11:06:34.061Z,17.68
2022-11-07T11:09:17.461Z,17.68
2022-11-07T11:11:53.970Z,17.37
2022-11-07T11:14:24.751Z,17.11
2022-11-07T11:16:57.719Z,17.17
2022-11-07T11:19:30.845Z,17.71
2022-11-07T11:22:08.580Z,17.41
2022-11-07T11:24:40.149Z,17.14
2022-11-07T11:27:17.986Z,16.85
2022-11-07T11:29:54.706Z,16.67
2022-11-07T11:32:30.346Z,16.59
2022-11-07T11:35:16.806Z,16.17
2022-11-07T11:37:58.117Z,15.65
2022-11-07T11:40:28.746Z,15.47
2022-11-07T11:43:07.845Z,15.40
2022-11-07T11:45:46.750Z,15.36
2022-11-07T11:48:27.454Z,15.50
2022-11-07T11:51:03.350Z,15.57
2022-11-07T11:53:36.378Z,15.54
2022-11-07T11:56:30.163Z,15.26
2022-11-07T11:59:21.328Z,15.15
2022-11-07T12:02:01.926Z,14.97
2022-11-07T12:04:58.372Z,14.85
2022-11-07T12:07:49.739Z,14.78
2022-11-07T12:10:30.632Z,14.74
2022-11-07T12:13:12.414Z,14.72
2022-11-07T12:16:00.065Z,14.62
2022-11-07T12:18:41.500Z,14.63
2022-11-07T12:21:26.881Z,14.49
2022-11-07T12:24:28.358Z,14.42
2022-11-07T12:27:13.091Z,14.64
2022-11-07T12:30:07.264Z,14.83
2022-11-07T12:32:53.342Z,14.91
2022-11-07T12:35:43.860Z,15.02
2022-11-07T12:38:45.647Z,14.93
2022-11-07T12:41:29.367Z,15.01
2022-11-07T12:44:20.825Z,15.10
2022-11-07T12:46:56.746Z,15.04
2022-11-07T12:50:01.968Z,15.07
2022-11-07T12:53:02.794Z,14.94
2022-11-07T12:55:42.081Z,14.89
2022-11-07T12:58:21.295Z,14.97
2022-11-07T13:00:54.995Z,15.00
2022-11-07T13:03:53.905Z,14.91
2022-11-07T13:06:32.580Z,14.88
2022-11-07T13:09:20.841Z,14.98
2022-11-07T13:12:00.692Z,14.99
2022-11-07T13:14:37.191Z,14.99
2022-11-07T13:17:18.062Z,14.88
2022-11-07T13:19:49.975Z,14.80
2022-11-07T13:22:27.175Z,14.95
2022-11-07T13:25:15.983Z,14.94
2022-11-07T13:27:50.401Z,14.91
2022-11-07T13:30:29.329Z,14.94
2022-11-07T13:33:03.342Z,14.82
2022-11-07T13:35:35.558Z,14.93
2022-11-07T13:38:13.608Z,15.13
2022-11-07T13:40:49.625Z,15.35
2022-11-07T13:43:23.909Z,15.20
2022-11-07T13:45:58.431Z,15.28
2022-11-07T13:48:35.508Z,15.41
2022-11-07T13:51:11.768Z,15.32
2022-11-07T13:53:55.057Z,15.27
2022-11-07T13:56:35.736Z,15.36
2022-11-07T13:59:08.825Z,15.41
2022-11-07T14:01:49.318Z,15.45
2022-11-07T14:04:25.016Z,15.45
2022-11-07T14:07:00.542Z,15.51
2022-11-07T14:09:32.238Z,15.61
2022-11-07T14:12:02.441Z,15.61
2022-11-07T14:14:32.960Z,15.70
2022-11-07T14:17:03.502Z,15.75
2022-11-07T14:19:36.374Z,15.88
2022-11-07T14:22:09.805Z,16.01
2022-11-07T14:24:55.381Z,15.92
2022-11-07T14:27:27.427Z,15.76
2022-11-07T14:30:00.533Z,15.57
2022-11-07T14:32:32.096Z,15.50
2022-11-07T14:35:11.115Z,15.33
2022-11-07T14:37:41.280Z,15.06
2022-11-07T14:40:14.515Z,14.94
2022-11-07T14:42:47.785Z,14.76
2022-11-07T14:45:46.850Z,14.76
2022-11-07T14:48:15.310Z,14.62
2022-11-07T14:50:50.141Z,14.48
2022-11-07T14:53:25.570Z,14.55
2022-11-07T14:55:58.104Z,14.55
2022-11-07T14:58:31.352Z,14.43
2022-11-07T15:01:14.270Z,14.32
2022-11-07T15:03:57.346Z,14.23
2022-11-07T15:06:36.220Z,14.32
2022-11-07T15:09:09.813Z,14.24
2022-11-07T15:11:41.434Z,14.21
2022-11-07T15:14:26.222Z,14.11
2022-11-07T15:16:58.611Z,14.22
2022-11-07T15:19:29.618Z,14.18
2022-11-07T15:22:03.463Z,14.24
2022-11-07T15:24:39.196Z,14.09
2022-11-07T15:27:22.934Z,14.05
2022-11-07T15:29:56.084Z,13.94
2022-11-07T15:32:29.182Z,13.94
2022-11-07T15:35:17.348Z,13.94
2022-11-07T15:38:01.327Z,13.97
2022-11-07T15:40:33.018Z,13.85
2022-11-07T15:43:03.396Z,13.80
2022-11-07T15:45:34.018Z,13.78
2022-11-07T15:48:04.358Z,13.67
2022-11-07T15:50:44.277Z,13.65
2022-11-07T15:53:23.931Z,13.55
2022-11-07T15:55:56.229Z,13.58
2022-11-07T15:58:29.883Z,13.68
2022-11-07T16:01:01.495Z,13.75
2022-11-07T16:03:31.826Z,13.60
2022-11-07T16:06:04.173Z,13.55
2022-11-07T16:08:37.960Z,13.59
2022-11-07T16:11:11.632Z,13.45
2022-11-07T16:13:42.395Z,13.38
2022-11-07T16:16:19.116Z,13.38
2022-11-07T16:18:51.233Z,13.37
2022-11-07T16:21:22.053Z,13.41
2022-11-07T16:23:55.382Z,13.40
2022-11-07T16:26:32.059Z,13.37
2022-11-07T16:29:02.353Z,13.40
2022-11-07T16:31:32.648Z,13.44
2022-11-07T16:34:02.849Z,13.46
2022-11-07T16:36:35.540Z,13.48
2022-11-07T16:39:10.785Z,13.42
2022-11-07T16:41:40.935Z,13.54
2022-11-07T16:44:11.124Z,13.51
2022-11-07T16:46:41.405Z,13.59
2022-11-07T16:49:17.777Z,13.50
2022-11-07T16:51:47.901Z,13.44
2022-11-07T16:54:20.580Z,13.46
2022-11-07T16:56:51.573Z,13.36
2022-11-07T16:59:24.967Z,13.30
2022-11-07T17:01:57.748Z,13.19
2022-11-07T17:04:28.230Z,13.26
2022-11-07T17:06:58.389Z,13.22
2022-11-07T17:09:31.088Z,13.28
2022-11-07T17:12:01.393Z,13.32
2022-11-07T17:14:31.488Z,13.35
2022-11-07T17:17:01.755Z,13.28
2022-11-07T17:19:32.012Z,13.25
2022-11-07T17:22:03.193Z,13.22
2022-11-07T17:24:36.710Z,13.30
2022-11-07T17:27:21.607Z,13.28
2022-11-07T17:29:52.918Z,13.32
2022-11-07T17:32:23.666Z,13.28
2022-11-07T17:35:17.828Z,13.32
2022-11-07T17:37:43.994Z,13.36
2022-11-07T17:40:21.625Z,13.46
2022-11-07T17:42:51.777Z,13.48
2022-11-07T17:45:22.021Z,13.40
2022-11-07T17:47:52.377Z,13.40
2022-11-07T17:50:24.182Z,13.52
2022-11-07T17:52:54.722Z,13.54
2022-11-07T17:55:27.690Z,13.51
2022-11-07T17:57:57.865Z,13.49
2022-11-07T18:00:29.621Z,13.46
2022-11-07T18:02:59.980Z,13.39
2022-11-07T18:05:45.349Z,13.38
2022-11-07T18:08:25.287Z,13.28
2022-11-07T18:11:09.294Z,13.20
2022-11-07T18:13:39.668Z,13.31
2022-11-07T18:16:11.253Z,13.27
2022-11-07T18:18:41.446Z,13.42
2022-11-07T18:21:11.967Z,13.56
2022-11-07T18:23:44.670Z,13.63
2022-11-07T18:26:25.348Z,13.52
2022-11-07T18:28:58.337Z,13.46
2022-11-07T18:31:28.552Z,13.44
2022-11-07T18:34:00.374Z,13.43
2022-11-07T18:36:31.567Z,13.45
2022-11-07T18:39:05.021Z,13.40
2022-11-07T18:41:38.228Z,13.35
2022-11-07T18:44:09.600Z,13.35
2022-11-07T18:46:40.685Z,13.31
2022-11-07T18:49:10.709Z,13.35
2022-11-07T18:51:41.207Z,13.44
2022-11-07T18:54:13.792Z,13.41
2022-11-07T18:56:46.853Z,13.47
2022-11-07T18:59:17.003Z,13.46
2022-11-07T19:01:47.359Z,13.45
2022-11-07T19:04:17.619Z,13.51
2022-11-07T19:06:58.510Z,13.47
2022-11-07T19:09:31.767Z,13.43
2022-11-07T19:12:04.557Z,13.45
2022-11-07T19:14:35.305Z,13.59
2022-11-07T19:17:05.522Z,13.64
2022-11-07T19:19:36.475Z,13.58
2022-11-07T19:22:06.590Z,13.59
2022-11-07T19:24:37.355Z,13.68
2022-11-07T19:27:11.324Z,13.75
2022-11-07T19:29:41.740Z,13.59
2022-11-07T19:32:12.611Z,13.62
2022-11-07T19:34:42.732Z,13.55
2022-11-07T19:37:12.820Z,13.58
2022-11-07T19:39:43.012Z,13.66
2022-11-07T19:42:15.760Z,13.62
2022-11-07T19:44:50.448Z,13.58
2022-11-07T19:47:21.815Z,13.48
2022-11-07T19:49:52.155Z,13.33
2022-11-07T19:52:22.428Z,13.38
2022-11-07T19:54:53.457Z,13.44
2022-11-07T19:57:26.272Z,13.42
2022-11-07T19:59:56.408Z,13.44
2022-11-07T20:02:32.926Z,13.31
2022-11-07T20:05:03.912Z,13.35
2022-11-07T20:07:34.191Z,13.26
2022-11-07T20:10:04.573Z,13.17
2022-11-07T20:12:37.545Z,13.17
2022-11-07T20:15:09.460Z,13.20
2022-11-07T20:17:39.567Z,13.20
2022-11-07T20:20:13.838Z,13.31
2022-11-07T20:22:48.265Z,13.36
2022-11-07T20:25:18.648Z,13.33
2022-11-07T20:27:51.340Z,13.31
2022-11-07T20:30:21.697Z,13.28
2022-11-07T20:32:51.996Z,13.26
2022-11-07T20:35:22.239Z,13.29
2022-11-07T20:37:52.268Z,13.25
2022-11-07T20:40:27.968Z,13.31
2022-11-07T20:43:02.995Z,13.25
2022-11-07T20:45:33.250Z,13.20
2022-11-07T20:48:03.366Z,13.19
2022-11-07T20:50:35.642Z,13.18
2022-11-07T20:53:08.838Z,13.23
2022-11-07T20:55:42.749Z,13.17
2022-11-07T20:58:15.710Z,13.17
2022-11-07T21:00:47.279Z,13.20
2022-11-07T21:03:18.495Z,13.27
2022-11-07T21:05:49.026Z,13.32
2022-11-07T21:08:19.097Z,13.28
2022-11-07T21:10:52.884Z,13.32
2022-11-07T21:13:25.850Z,13.31
2022-11-07T21:15:55.908Z,13.43
2022-11-07T21:18:26.138Z,13.35
2022-11-07T21:20:56.218Z,13.21
2022-11-07T21:23:27.080Z,13.30
2022-11-07T21:25:57.627Z,13.23
2022-11-07T21:28:30.403Z,13.18
2022-11-07T21:31:04.916Z,13.20
2022-11-07T21:33:35.465Z,13.19
2022-11-07T21:36:05.757Z,13.23
2022-11-07T21:38:35.974Z,13.17
2022-11-07T21:41:08.403Z,13.11
2022-11-07T21:43:41.327Z,13.17
2022-11-07T21:46:14.254Z,13.13
2022-11-07T21:48:45.838Z,13.07
2022-11-07T21:51:18.411Z,13.08
2022-11-07T21:53:49.760Z,13.17
2022-11-07T21:56:23.947Z,13.13
2022-11-07T21:58:59.625Z,13.14
2022-11-07T22:01:35.480Z,13.16
2022-11-07T22:04:09.076Z,13.06
2022-11-07T22:06:43.707Z,12.99
2022-11-07T22:09:17.963Z,12.94
2022-11-07T22:11:48.373Z,12.91
2022-11-07T22:14:25.751Z,13.03
2022-11-07T22:16:59.105Z,13.10
2022-11-07T22:19:29.609Z,13.13
2022-11-07T22:21:59.762Z,13.16
2022-11-07T22:24:29.967Z,13.15
2022-11-07T22:27:01.147Z,13.12
2022-11-07T22:29:34.071Z,13.14
2022-11-07T22:32:05.204Z,13.17
2022-11-07T22:34:35.255Z,13.16
2022-11-07T22:37:05.376Z,13.15
2022-11-07T22:39:35.436Z,13.09
2022-11-07T22:42:05.987Z,13.06
2022-11-07T22:44:38.900Z,13.13
2022-11-07T22:47:09.000Z,13.20
2022-11-07T22:49:39.034Z,13.23
2022-11-07T22:52:09.121Z,13.23
2022-11-07T22:54:39.430Z,13.26
2022-11-07T22:57:13.001Z,13.18
2022-11-07T22:59:48.136Z,13.20
2022-11-07T23:02:18.498Z,13.18
2022-11-07T23:04:48.756Z,13.16
2022-11-07T23:07:18.797Z,13.20
2022-11-07T23:09:48.945Z,13.24
2022-11-07T23:12:19.005Z,13.24
2022-11-07T23:14:51.936Z,13.16
2022-11-07T23:17:22.080Z,13.13
2022-11-07T23:19:55.870Z,13.05
2022-11-07T23:22:31.213Z,13.01
2022-11-07T23:25:02.591Z,12.96
2022-11-07T23:27:32.798Z,12.93
2022-11-07T23:30:05.529Z,12.93
2022-11-07T23:32:35.654Z,12.84
2022-11-07T23:35:05.728Z,12.86
2022-11-07T23:37:35.761Z,12.79
2022-11-07T23:40:05.993Z,12.76
2022-11-07T23:42:36.155Z,12.77
2022-11-07T23:45:22.589Z,12.77
2022-11-07T23:48:05.185Z,12.80
2022-11-07T23:50:47.684Z,12.77
2022-11-07T23:53:29.979Z,12.76
2022-11-07T23:56:00.274Z,12.73
2022-11-07T23:58:42.808Z,12.71
